sensor_id;sensor_type;location;lat;lon;timestamp;P1;durP1;ratioP1;P2;durP2;ratioP2
3177;SDS011;38141;42.666;23.344;2023-09-07T00:00:48;14.97;;;11.50;;
3177;SDS011;38141;42.666;23.344;2023-09-07T00:03:15;16.13;;;11.17;;
3177;SDS011;38141;42.666;23.344;2023-09-07T00:05:41;16.50;;;12.23;;
3177;SDS011;38141;42.666;23.344;2023-09-07T00:08:09;13.63;;;11.00;;
3177;SDS011;38141;42.666;23.344;2023-09-07T00:10:36;13.50;;;10.87;;
3177;SDS011;38141;42.666;23.344;2023-09-07T00:13:04;13.10;;;11.13;;
3177;SDS011;38141;42.666;23.344;2023-09-07T00:15:36;17.90;;;11.80;;
3177;SDS011;38141;42.666;23.344;2023-09-07T00:18:03;16.00;;;12.57;;
3177;SDS011;38141;42.666;23.344;2023-09-07T00:20:31;12.70;;;10.90;;
3177;SDS011;38141;42.666;23.344;2023-09-07T00:22:59;14.03;;;11.40;;
3177;SDS011;38141;42.666;23.344;2023-09-07T00:25:26;15.83;;;11.23;;
3177;SDS011;38141;42.666;23.344;2023-09-07T00:27:53;18.57;;;11.53;;
3177;SDS011;38141;42.666;23.344;2023-09-07T00:30:22;14.23;;;12.10;;
3177;SDS011;38141;42.666;23.344;2023-09-07T00:32:50;14.40;;;12.87;;
3177;SDS011;38141;42.666;23.344;2023-09-07T00:35:17;14.60;;;11.10;;
3177;SDS011;38141;42.666;23.344;2023-09-07T00:37:44;13.90;;;11.43;;
3177;SDS011;38141;42.666;23.344;2023-09-07T00:40:11;16.17;;;12.60;;
3177;SDS011;38141;42.666;23.344;2023-09-07T00:42:38;16.87;;;12.33;;
3177;SDS011;38141;42.666;23.344;2023-09-07T00:45:05;16.47;;;12.43;;
3177;SDS011;38141;42.666;23.344;2023-09-07T00:47:34;15.43;;;11.60;;
3177;SDS011;38141;42.666;23.344;2023-09-07T00:50:02;14.83;;;11.20;;
3177;SDS011;38141;42.666;23.344;2023-09-07T00:52:29;18.47;;;12.87;;
3177;SDS011;38141;42.666;23.344;2023-09-07T00:54:58;16.67;;;12.97;;
3177;SDS011;38141;42.666;23.344;2023-09-07T00:57:26;16.70;;;13.30;;
3177;SDS011;38141;42.666;23.344;2023-09-07T00:59:53;19.10;;;12.50;;
3177;SDS011;38141;42.666;23.344;2023-09-07T01:02:20;21.03;;;13.00;;
3177;SDS011;38141;42.666;23.344;2023-09-07T01:04:50;17.90;;;13.20;;
3177;SDS011;38141;42.666;23.344;2023-09-07T01:07:18;18.37;;;14.03;;
3177;SDS011;38141;42.666;23.344;2023-09-07T01:09:49;18.63;;;13.60;;
3177;SDS011;38141;42.666;23.344;2023-09-07T01:12:26;16.77;;;13.20;;
3177;SDS011;38141;42.666;23.344;2023-09-07T01:14:53;19.30;;;14.43;;
3177;SDS011;38141;42.666;23.344;2023-09-07T01:17:22;17.90;;;13.90;;
3177;SDS011;38141;42.666;23.344;2023-09-07T01:19:51;16.13;;;13.17;;
3177;SDS011;38141;42.666;23.344;2023-09-07T01:22:20;17.37;;;13.80;;
3177;SDS011;38141;42.666;23.344;2023-09-07T01:24:48;20.77;;;14.83;;
3177;SDS011;38141;42.666;23.344;2023-09-07T01:27:17;17.70;;;13.50;;
3177;SDS011;38141;42.666;23.344;2023-09-07T01:29:45;19.43;;;14.40;;
3177;SDS011;38141;42.666;23.344;2023-09-07T01:32:12;16.60;;;13.40;;
3177;SDS011;38141;42.666;23.344;2023-09-07T01:34:38;18.67;;;14.03;;
3177;SDS011;38141;42.666;23.344;2023-09-07T01:37:05;21.07;;;15.43;;
3177;SDS011;38141;42.666;23.344;2023-09-07T01:39:34;21.33;;;15.57;;
3177;SDS011;38141;42.666;23.344;2023-09-07T01:42:01;19.57;;;14.77;;
3177;SDS011;38141;42.666;23.344;2023-09-07T01:44:28;18.20;;;14.30;;
3177;SDS011;38141;42.666;23.344;2023-09-07T01:46:55;20.27;;;13.93;;
3177;SDS011;38141;42.666;23.344;2023-09-07T01:49:22;18.27;;;14.73;;
3177;SDS011;38141;42.666;23.344;2023-09-07T01:51:50;19.90;;;14.67;;
3177;SDS011;38141;42.666;23.344;2023-09-07T01:54:17;18.90;;;14.70;;
3177;SDS011;38141;42.666;23.344;2023-09-07T01:56:46;18.90;;;13.80;;
3177;SDS011;38141;42.666;23.344;2023-09-07T01:59:13;19.03;;;14.60;;
3177;SDS011;38141;42.666;23.344;2023-09-07T02:01:40;25.60;;;15.30;;
3177;SDS011;38141;42.666;23.344;2023-09-07T02:04:07;20.37;;;16.63;;
3177;SDS011;38141;42.666;23.344;2023-09-07T02:06:34;19.50;;;14.77;;
3177;SDS011;38141;42.666;23.344;2023-09-07T02:09:01;20.43;;;15.03;;
3177;SDS011;38141;42.666;23.344;2023-09-07T02:11:29;20.80;;;15.40;;
3177;SDS011;38141;42.666;23.344;2023-09-07T02:13:57;20.87;;;14.00;;
3177;SDS011;38141;42.666;23.344;2023-09-07T02:16:24;33.23;;;15.70;;
3177;SDS011;38141;42.666;23.344;2023-09-07T02:18:59;21.27;;;15.23;;
3177;SDS011;38141;42.666;23.344;2023-09-07T02:21:27;21.00;;;15.80;;
3177;SDS011;38141;42.666;23.344;2023-09-07T02:23:54;20.47;;;15.40;;
3177;SDS011;38141;42.666;23.344;2023-09-07T02:26:21;20.47;;;15.60;;
3177;SDS011;38141;42.666;23.344;2023-09-07T02:28:48;19.70;;;15.87;;
3177;SDS011;38141;42.666;23.344;2023-09-07T02:31:16;20.33;;;15.43;;
3177;SDS011;38141;42.666;23.344;2023-09-07T02:33:44;18.50;;;14.80;;
3177;SDS011;38141;42.666;23.344;2023-09-07T02:36:11;23.33;;;15.63;;
3177;SDS011;38141;42.666;23.344;2023-09-07T02:38:40;20.20;;;15.53;;
3177;SDS011;38141;42.666;23.344;2023-09-07T02:41:07;22.17;;;16.47;;
3177;SDS011;38141;42.666;23.344;2023-09-07T02:43:34;24.60;;;16.53;;
3177;SDS011;38141;42.666;23.344;2023-09-07T02:46:01;22.20;;;16.83;;
3177;SDS011;38141;42.666;23.344;2023-09-07T02:48:30;22.37;;;16.83;;
3177;SDS011;38141;42.666;23.344;2023-09-07T02:51:00;22.60;;;15.60;;
3177;SDS011;38141;42.666;23.344;2023-09-07T02:53:27;22.17;;;16.23;;
3177;SDS011;38141;42.666;23.344;2023-09-07T02:55:54;20.80;;;16.17;;
3177;SDS011;38141;42.666;23.344;2023-09-07T02:58:22;23.40;;;17.70;;
3177;SDS011;38141;42.666;23.344;2023-09-07T03:00:49;23.23;;;17.27;;
3177;SDS011;38141;42.666;23.344;2023-09-07T03:03:16;22.60;;;17.33;;
3177;SDS011;38141;42.666;23.344;2023-09-07T03:05:44;21.00;;;16.17;;
3177;SDS011;38141;42.666;23.344;2023-09-07T03:08:11;21.90;;;16.30;;
3177;SDS011;38141;42.666;23.344;2023-09-07T03:10:38;24.37;;;16.40;;
3177;SDS011;38141;42.666;23.344;2023-09-07T03:13:06;28.20;;;17.23;;
3177;SDS011;38141;42.666;23.344;2023-09-07T03:15:33;22.03;;;16.90;;
3177;SDS011;38141;42.666;23.344;2023-09-07T03:18:00;24.33;;;17.33;;
3177;SDS011;38141;42.666;23.344;2023-09-07T03:20:28;23.47;;;17.80;;
3177;SDS011;38141;42.666;23.344;2023-09-07T03:22:56;27.17;;;18.57;;
3177;SDS011;38141;42.666;23.344;2023-09-07T03:25:23;22.30;;;17.17;;
3177;SDS011;38141;42.666;23.344;2023-09-07T03:27:50;26.40;;;18.40;;
3177;SDS011;38141;42.666;23.344;2023-09-07T03:30:17;24.43;;;18.63;;
3177;SDS011;38141;42.666;23.344;2023-09-07T03:32:44;24.20;;;18.20;;
3177;SDS011;38141;42.666;23.344;2023-09-07T03:35:11;23.80;;;18.20;;
3177;SDS011;38141;42.666;23.344;2023-09-07T03:37:38;25.07;;;18.20;;
3177;SDS011;38141;42.666;23.344;2023-09-07T03:40:07;27.40;;;19.27;;
3177;SDS011;38141;42.666;23.344;2023-09-07T03:42:35;27.70;;;21.00;;
3177;SDS011;38141;42.666;23.344;2023-09-07T03:45:03;27.10;;;20.20;;
3177;SDS011;38141;42.666;23.344;2023-09-07T03:47:30;25.70;;;18.30;;
3177;SDS011;38141;42.666;23.344;2023-09-07T03:49:57;31.77;;;22.40;;
3177;SDS011;38141;42.666;23.344;2023-09-07T03:52:25;44.93;;;28.87;;
3177;SDS011;38141;42.666;23.344;2023-09-07T03:54:53;28.30;;;19.50;;
3177;SDS011;38141;42.666;23.344;2023-09-07T03:57:22;27.20;;;19.00;;
3177;SDS011;38141;42.666;23.344;2023-09-07T03:59:49;27.70;;;20.27;;
3177;SDS011;38141;42.666;23.344;2023-09-07T04:02:16;28.57;;;19.43;;
3177;SDS011;38141;42.666;23.344;2023-09-07T04:04:43;29.40;;;22.37;;
3177;SDS011;38141;42.666;23.344;2023-09-07T04:07:14;29.53;;;19.53;;
3177;SDS011;38141;42.666;23.344;2023-09-07T04:09:41;27.30;;;19.60;;
3177;SDS011;38141;42.666;23.344;2023-09-07T04:12:09;27.70;;;20.80;;
3177;SDS011;38141;42.666;23.344;2023-09-07T04:14:37;26.00;;;19.77;;
3177;SDS011;38141;42.666;23.344;2023-09-07T04:17:05;27.97;;;20.17;;
3177;SDS011;38141;42.666;23.344;2023-09-07T04:19:46;27.33;;;20.10;;
3177;SDS011;38141;42.666;23.344;2023-09-07T04:22:27;26.30;;;19.90;;
3177;SDS011;38141;42.666;23.344;2023-09-07T04:25:07;24.37;;;19.07;;
3177;SDS011;38141;42.666;23.344;2023-09-07T04:27:49;27.97;;;19.20;;
3177;SDS011;38141;42.666;23.344;2023-09-07T04:33:42;25.93;;;19.37;;
3177;SDS011;38141;42.666;23.344;2023-09-07T04:36:23;29.00;;;20.80;;
3177;SDS011;38141;42.666;23.344;2023-09-07T04:39:04;25.83;;;20.37;;
3177;SDS011;38141;42.666;23.344;2023-09-07T04:41:45;26.90;;;19.50;;
3177;SDS011;38141;42.666;23.344;2023-09-07T04:44:26;27.90;;;19.90;;
3177;SDS011;38141;42.666;23.344;2023-09-07T04:47:03;30.30;;;21.37;;
3177;SDS011;38141;42.666;23.344;2023-09-07T04:52:48;29.10;;;19.80;;
3177;SDS011;38141;42.666;23.344;2023-09-07T04:55:36;27.33;;;19.20;;
3177;SDS011;38141;42.666;23.344;2023-09-07T04:58:32;26.77;;;20.17;;
3177;SDS011;38141;42.666;23.344;2023-09-07T05:01:01;28.33;;;19.50;;
3177;SDS011;38141;42.666;23.344;2023-09-07T05:03:29;24.93;;;18.50;;
3177;SDS011;38141;42.666;23.344;2023-09-07T05:05:56;25.27;;;19.47;;
3177;SDS011;38141;42.666;23.344;2023-09-07T05:14:34;28.40;;;20.13;;
3177;SDS011;38141;42.666;23.344;2023-09-07T05:17:03;28.00;;;18.90;;
3177;SDS011;38141;42.666;23.344;2023-09-07T05:19:44;26.23;;;19.07;;
3177;SDS011;38141;42.666;23.344;2023-09-07T05:22:33;25.27;;;20.40;;
3177;SDS011;38141;42.666;23.344;2023-09-07T05:25:32;28.60;;;20.40;;
3177;SDS011;38141;42.666;23.344;2023-09-07T05:28:13;28.77;;;20.00;;
3177;SDS011;38141;42.666;23.344;2023-09-07T05:37:26;26.20;;;18.67;;
3177;SDS011;38141;42.666;23.344;2023-09-07T05:40:07;23.80;;;18.47;;
3177;SDS011;38141;42.666;23.344;2023-09-07T05:43:06;28.30;;;18.00;;
3177;SDS011;38141;42.666;23.344;2023-09-07T05:45:34;26.30;;;18.00;;
3177;SDS011;38141;42.666;23.344;2023-09-07T05:48:17;45.47;;;21.07;;
3177;SDS011;38141;42.666;23.344;2023-09-07T05:50:58;24.47;;;17.80;;
3177;SDS011;38141;42.666;23.344;2023-09-07T05:53:28;24.23;;;17.03;;
3177;SDS011;38141;42.666;23.344;2023-09-07T05:56:07;24.87;;;16.30;;
3177;SDS011;38141;42.666;23.344;2023-09-07T06:04:24;24.73;;;17.60;;
3177;SDS011;38141;42.666;23.344;2023-09-07T06:07:04;20.67;;;15.30;;
3177;SDS011;38141;42.666;23.344;2023-09-07T06:09:34;21.63;;;15.40;;
3177;SDS011;38141;42.666;23.344;2023-09-07T06:12:01;22.63;;;15.50;;
3177;SDS011;38141;42.666;23.344;2023-09-07T06:14:30;18.43;;;13.43;;
3177;SDS011;38141;42.666;23.344;2023-09-07T06:16:58;17.87;;;14.10;;
3177;SDS011;38141;42.666;23.344;2023-09-07T06:19:25;21.20;;;12.95;;
3177;SDS011;38141;42.666;23.344;2023-09-07T06:21:52;19.48;;;12.77;;
3177;SDS011;38141;42.666;23.344;2023-09-07T06:24:19;18.48;;;12.23;;
3177;SDS011;38141;42.666;23.344;2023-09-07T06:26:46;15.32;;;11.43;;
3177;SDS011;38141;42.666;23.344;2023-09-07T06:29:15;16.30;;;10.95;;
3177;SDS011;38141;42.666;23.344;2023-09-07T06:31:43;15.15;;;11.52;;
3177;SDS011;38141;42.666;23.344;2023-09-07T06:34:11;14.50;;;11.50;;
3177;SDS011;38141;42.666;23.344;2023-09-07T06:36:39;13.40;;;11.68;;
3177;SDS011;38141;42.666;23.344;2023-09-07T06:39:06;11.52;;;9.88;;
3177;SDS011;38141;42.666;23.344;2023-09-07T06:41:34;15.35;;;10.63;;
3177;SDS011;38141;42.666;23.344;2023-09-07T06:44:01;14.35;;;10.70;;
3177;SDS011;38141;42.666;23.344;2023-09-07T06:46:29;15.07;;;10.60;;
3177;SDS011;38141;42.666;23.344;2023-09-07T06:48:56;11.10;;;9.20;;
3177;SDS011;38141;42.666;23.344;2023-09-07T06:51:24;13.40;;;10.40;;
3177;SDS011;38141;42.666;23.344;2023-09-07T06:53:52;16.02;;;9.60;;
3177;SDS011;38141;42.666;23.344;2023-09-07T06:56:19;15.48;;;9.68;;
3177;SDS011;38141;42.666;23.344;2023-09-07T06:58:46;11.48;;;9.43;;
3177;SDS011;38141;42.666;23.344;2023-09-07T07:01:13;11.95;;;8.88;;
3177;SDS011;38141;42.666;23.344;2023-09-07T07:03:40;13.18;;;10.52;;
3177;SDS011;38141;42.666;23.344;2023-09-07T07:06:08;10.80;;;9.70;;
3177;SDS011;38141;42.666;23.344;2023-09-07T07:08:36;13.30;;;9.52;;
3177;SDS011;38141;42.666;23.344;2023-09-07T07:11:09;11.55;;;9.55;;
3177;SDS011;38141;42.666;23.344;2023-09-07T07:13:37;15.20;;;9.70;;
3177;SDS011;38141;42.666;23.344;2023-09-07T07:16:21;15.57;;;9.25;;
3177;SDS011;38141;42.666;23.344;2023-09-07T07:19:02;14.45;;;9.75;;
3177;SDS011;38141;42.666;23.344;2023-09-07T07:21:45;9.90;;;8.88;;
3177;SDS011;38141;42.666;23.344;2023-09-07T07:24:29;11.18;;;8.88;;
3177;SDS011;38141;42.666;23.344;2023-09-07T07:29:43;9.88;;;8.57;;
3177;SDS011;38141;42.666;23.344;2023-09-07T07:32:11;14.40;;;9.40;;
3177;SDS011;38141;42.666;23.344;2023-09-07T07:34:38;13.07;;;8.77;;
3177;SDS011;38141;42.666;23.344;2023-09-07T07:37:06;11.75;;;9.63;;
3177;SDS011;38141;42.666;23.344;2023-09-07T07:39:41;11.55;;;9.43;;
3177;SDS011;38141;42.666;23.344;2023-09-07T07:42:08;12.18;;;8.95;;
3177;SDS011;38141;42.666;23.344;2023-09-07T07:44:41;10.57;;;9.05;;
3177;SDS011;38141;42.666;23.344;2023-09-07T07:47:08;9.45;;;8.15;;
3177;SDS011;38141;42.666;23.344;2023-09-07T07:49:36;9.55;;;8.48;;
3177;SDS011;38141;42.666;23.344;2023-09-07T07:52:04;10.32;;;8.32;;
3177;SDS011;38141;42.666;23.344;2023-09-07T07:54:33;12.52;;;8.55;;
3177;SDS011;38141;42.666;23.344;2023-09-07T07:57:07;11.60;;;8.88;;
3177;SDS011;38141;42.666;23.344;2023-09-07T07:59:36;12.02;;;8.63;;
3177;SDS011;38141;42.666;23.344;2023-09-07T08:02:11;8.30;;;7.50;;
3177;SDS011;38141;42.666;23.344;2023-09-07T08:04:52;10.00;;;8.63;;
3177;SDS011;38141;42.666;23.344;2023-09-07T08:07:34;14.77;;;8.45;;
3177;SDS011;38141;42.666;23.344;2023-09-07T08:10:15;10.82;;;8.38;;
3177;SDS011;38141;42.666;23.344;2023-09-07T08:16:13;15.82;;;9.90;;
3177;SDS011;38141;42.666;23.344;2023-09-07T08:18:40;14.80;;;9.73;;
3177;SDS011;38141;42.666;23.344;2023-09-07T08:21:14;13.52;;;10.07;;
3177;SDS011;38141;42.666;23.344;2023-09-07T08:23:43;15.43;;;10.13;;
3177;SDS011;38141;42.666;23.344;2023-09-07T08:26:10;10.27;;;8.55;;
3177;SDS011;38141;42.666;23.344;2023-09-07T08:31:09;10.05;;;8.38;;
3177;SDS011;38141;42.666;23.344;2023-09-07T08:33:52;12.27;;;9.52;;
3177;SDS011;38141;42.666;23.344;2023-09-07T08:36:20;11.73;;;8.63;;
3177;SDS011;38141;42.666;23.344;2023-09-07T08:38:50;9.68;;;8.02;;
3177;SDS011;38141;42.666;23.344;2023-09-07T08:41:18;14.93;;;9.25;;
3177;SDS011;38141;42.666;23.344;2023-09-07T08:43:47;13.82;;;8.70;;
3177;SDS011;38141;42.666;23.344;2023-09-07T08:46:19;10.00;;;7.80;;
3177;SDS011;38141;42.666;23.344;2023-09-07T08:48:50;12.13;;;8.15;;
3177;SDS011;38141;42.666;23.344;2023-09-07T08:51:18;10.60;;;7.97;;
3177;SDS011;38141;42.666;23.344;2023-09-07T08:53:55;9.45;;;7.47;;
3177;SDS011;38141;42.666;23.344;2023-09-07T08:56:22;10.85;;;8.38;;
3177;SDS011;38141;42.666;23.344;2023-09-07T08:58:51;8.88;;;7.68;;
3177;SDS011;38141;42.666;23.344;2023-09-07T09:01:22;12.02;;;8.15;;
3177;SDS011;38141;42.666;23.344;2023-09-07T09:03:51;8.40;;;7.30;;
3177;SDS011;38141;42.666;23.344;2023-09-07T09:06:20;8.88;;;7.43;;
3177;SDS011;38141;42.666;23.344;2023-09-07T09:11:39;9.60;;;7.47;;
3177;SDS011;38141;42.666;23.344;2023-09-07T09:14:12;11.88;;;8.23;;
3177;SDS011;38141;42.666;23.344;2023-09-07T09:16:51;7.00;;;6.30;;
3177;SDS011;38141;42.666;23.344;2023-09-07T09:19:31;9.63;;;7.00;;
3177;SDS011;38141;42.666;23.344;2023-09-07T09:22:17;12.07;;;6.68;;
3177;SDS011;38141;42.666;23.344;2023-09-07T09:24:48;7.00;;;6.22;;
3177;SDS011;38141;42.666;23.344;2023-09-07T09:27:15;7.15;;;6.45;;
3177;SDS011;38141;42.666;23.344;2023-09-07T09:32:46;7.88;;;6.53;;
3177;SDS011;38141;42.666;23.344;2023-09-07T09:35:17;7.03;;;6.32;;
3177;SDS011;38141;42.666;23.344;2023-09-07T09:37:45;7.93;;;6.78;;
3177;SDS011;38141;42.666;23.344;2023-09-07T09:40:14;7.53;;;6.72;;
3177;SDS011;38141;42.666;23.344;2023-09-07T09:42:43;9.73;;;6.38;;
3177;SDS011;38141;42.666;23.344;2023-09-07T09:45:11;9.02;;;6.82;;
3177;SDS011;38141;42.666;23.344;2023-09-07T09:47:39;7.85;;;6.68;;
3177;SDS011;38141;42.666;23.344;2023-09-07T09:50:19;7.85;;;7.13;;
3177;SDS011;38141;42.666;23.344;2023-09-07T09:52:46;7.63;;;6.18;;
3177;SDS011;38141;42.666;23.344;2023-09-07T09:55:28;9.25;;;6.35;;
3177;SDS011;38141;42.666;23.344;2023-09-07T09:57:57;6.80;;;5.88;;
3177;SDS011;38141;42.666;23.344;2023-09-07T10:00:24;7.40;;;6.07;;
3177;SDS011;38141;42.666;23.344;2023-09-07T10:03:02;9.23;;;6.68;;
3177;SDS011;38141;42.666;23.344;2023-09-07T10:05:34;8.10;;;6.47;;
3177;SDS011;38141;42.666;23.344;2023-09-07T10:08:02;9.25;;;6.20;;
3177;SDS011;38141;42.666;23.344;2023-09-07T10:10:33;6.80;;;6.10;;
3177;SDS011;38141;42.666;23.344;2023-09-07T10:13:02;9.05;;;6.85;;
3177;SDS011;38141;42.666;23.344;2023-09-07T10:15:37;7.30;;;6.57;;
3177;SDS011;38141;42.666;23.344;2023-09-07T10:18:20;8.48;;;7.40;;
3177;SDS011;38141;42.666;23.344;2023-09-07T10:20:53;8.38;;;6.28;;
3177;SDS011;38141;42.666;23.344;2023-09-07T10:23:34;9.75;;;7.35;;
3177;SDS011;38141;42.666;23.344;2023-09-07T10:26:11;8.73;;;6.63;;
3177;SDS011;38141;42.666;23.344;2023-09-07T10:28:40;7.38;;;5.75;;
3177;SDS011;38141;42.666;23.344;2023-09-07T10:31:12;13.45;;;6.80;;
3177;SDS011;38141;42.666;23.344;2023-09-07T10:33:55;7.55;;;6.20;;
3177;SDS011;38141;42.666;23.344;2023-09-07T10:43:36;8.65;;;6.00;;
3177;SDS011;38141;42.666;23.344;2023-09-07T10:46:14;8.40;;;6.88;;
3177;SDS011;38141;42.666;23.344;2023-09-07T10:48:41;7.07;;;6.38;;
3177;SDS011;38141;42.666;23.344;2023-09-07T10:51:08;8.13;;;6.78;;
3177;SDS011;38141;42.666;23.344;2023-09-07T10:53:36;7.60;;;6.55;;
3177;SDS011;38141;42.666;23.344;2023-09-07T10:56:05;7.63;;;6.72;;
3177;SDS011;38141;42.666;23.344;2023-09-07T10:58:33;9.63;;;7.47;;
3177;SDS011;38141;42.666;23.344;2023-09-07T11:01:03;7.88;;;7.07;;
3177;SDS011;38141;42.666;23.344;2023-09-07T11:03:32;8.73;;;6.90;;
3177;SDS011;38141;42.666;23.344;2023-09-07T11:06:03;7.13;;;6.43;;
3177;SDS011;38141;42.666;23.344;2023-09-07T11:08:33;14.88;;;8.60;;
3177;SDS011;38141;42.666;23.344;2023-09-07T11:11:00;11.13;;;7.03;;
3177;SDS011;38141;42.666;23.344;2023-09-07T12:04:51;12.38;;;6.03;;
3177;SDS011;38141;42.666;23.344;2023-09-07T12:07:19;6.82;;;5.50;;
3177;SDS011;38141;42.666;23.344;2023-09-07T12:09:47;8.85;;;6.38;;
3177;SDS011;38141;42.666;23.344;2023-09-07T12:12:14;8.35;;;6.55;;
3177;SDS011;38141;42.666;23.344;2023-09-07T12:14:41;9.15;;;6.28;;
3177;SDS011;38141;42.666;23.344;2023-09-07T12:17:08;9.63;;;6.22;;
3177;SDS011;38141;42.666;23.344;2023-09-07T12:19:36;11.40;;;5.68;;
3177;SDS011;38141;42.666;23.344;2023-09-07T12:22:04;8.30;;;5.65;;
3177;SDS011;38141;42.666;23.344;2023-09-07T12:24:33;11.13;;;5.75;;
3177;SDS011;38141;42.666;23.344;2023-09-07T12:27:00;9.10;;;6.00;;
3177;SDS011;38141;42.666;23.344;2023-09-07T12:29:27;8.40;;;6.45;;
3177;SDS011;38141;42.666;23.344;2023-09-07T12:31:56;6.65;;;5.70;;
3177;SDS011;38141;42.666;23.344;2023-09-07T12:34:25;7.60;;;5.68;;
3177;SDS011;38141;42.666;23.344;2023-09-07T12:36:52;6.00;;;5.40;;
3177;SDS011;38141;42.666;23.344;2023-09-07T12:39:21;6.78;;;5.95;;
3177;SDS011;38141;42.666;23.344;2023-09-07T12:41:48;8.57;;;5.38;;
3177;SDS011;38141;42.666;23.344;2023-09-07T12:44:24;7.63;;;5.85;;
3177;SDS011;38141;42.666;23.344;2023-09-07T12:46:51;6.40;;;4.82;;
3177;SDS011;38141;42.666;23.344;2023-09-07T12:49:25;10.68;;;6.75;;
3177;SDS011;38141;42.666;23.344;2023-09-07T12:51:52;6.80;;;5.80;;
3177;SDS011;38141;42.666;23.344;2023-09-07T12:54:21;5.57;;;5.05;;
3177;SDS011;38141;42.666;23.344;2023-09-07T12:56:48;6.40;;;5.63;;
3177;SDS011;38141;42.666;23.344;2023-09-07T12:59:16;6.18;;;5.55;;
3177;SDS011;38141;42.666;23.344;2023-09-07T13:01:54;6.97;;;6.07;;
3177;SDS011;38141;42.666;23.344;2023-09-07T13:04:29;6.25;;;5.45;;
3177;SDS011;38141;42.666;23.344;2023-09-07T13:06:56;8.43;;;6.03;;
3177;SDS011;38141;42.666;23.344;2023-09-07T13:09:25;6.43;;;5.25;;
3177;SDS011;38141;42.666;23.344;2023-09-07T13:11:57;8.77;;;5.78;;
3177;SDS011;38141;42.666;23.344;2023-09-07T13:14:24;10.35;;;5.88;;
3177;SDS011;38141;42.666;23.344;2023-09-07T13:16:55;9.27;;;5.40;;
3177;SDS011;38141;42.666;23.344;2023-09-07T13:19:32;8.43;;;5.30;;
3177;SDS011;38141;42.666;23.344;2023-09-07T13:22:00;6.20;;;5.47;;
3177;SDS011;38141;42.666;23.344;2023-09-07T13:24:29;8.98;;;5.85;;
3177;SDS011;38141;42.666;23.344;2023-09-07T13:26:56;8.15;;;5.90;;
3177;SDS011;38141;42.666;23.344;2023-09-07T13:29:26;7.95;;;5.55;;
3177;SDS011;38141;42.666;23.344;2023-09-07T13:31:53;6.90;;;5.53;;
3177;SDS011;38141;42.666;23.344;2023-09-07T13:34:20;7.25;;;5.75;;
3177;SDS011;38141;42.666;23.344;2023-09-07T13:36:48;5.82;;;4.88;;
3177;SDS011;38141;42.666;23.344;2023-09-07T13:39:16;6.95;;;5.03;;
3177;SDS011;38141;42.666;23.344;2023-09-07T14:03:12;7.20;;;5.88;;
3177;SDS011;38141;42.666;23.344;2023-09-07T14:05:39;9.65;;;7.88;;
3177;SDS011;38141;42.666;23.344;2023-09-07T14:08:08;9.75;;;6.88;;
3177;SDS011;38141;42.666;23.344;2023-09-07T14:10:35;11.32;;;6.40;;
3177;SDS011;38141;42.666;23.344;2023-09-07T14:13:02;8.50;;;6.88;;
3177;SDS011;38141;42.666;23.344;2023-09-07T14:15:41;7.60;;;6.65;;
3177;SDS011;38141;42.666;23.344;2023-09-07T14:47:01;9.52;;;5.55;;
3177;SDS011;38141;42.666;23.344;2023-09-07T14:49:29;12.75;;;6.20;;
3177;SDS011;38141;42.666;23.344;2023-09-07T14:51:56;7.10;;;5.63;;
3177;SDS011;38141;42.666;23.344;2023-09-07T14:54:24;8.45;;;5.70;;
3177;SDS011;38141;42.666;23.344;2023-09-07T14:56:51;9.98;;;5.97;;
3177;SDS011;38141;42.666;23.344;2023-09-07T14:59:18;20.80;;;17.20;;
3177;SDS011;38141;42.666;23.344;2023-09-07T15:01:45;11.48;;;6.30;;
3177;SDS011;38141;42.666;23.344;2023-09-07T15:04:14;12.57;;;6.72;;
3177;SDS011;38141;42.666;23.344;2023-09-07T15:06:43;7.03;;;5.40;;
3177;SDS011;38141;42.666;23.344;2023-09-07T15:09:10;11.00;;;5.68;;
3177;SDS011;38141;42.666;23.344;2023-09-07T15:11:37;9.77;;;5.97;;
3177;SDS011;38141;42.666;23.344;2023-09-07T15:14:22;8.35;;;6.63;;
3177;SDS011;38141;42.666;23.344;2023-09-07T15:17:15;7.30;;;5.80;;
3177;SDS011;38141;42.666;23.344;2023-09-07T16:51:14;9.40;;;6.88;;
3177;SDS011;38141;42.666;23.344;2023-09-07T16:53:56;9.55;;;6.68;;
3177;SDS011;38141;42.666;23.344;2023-09-07T16:56:40;10.80;;;7.57;;
3177;SDS011;38141;42.666;23.344;2023-09-07T17:02:47;16.23;;;8.43;;
3177;SDS011;38141;42.666;23.344;2023-09-07T17:05:33;12.70;;;8.03;;
3177;SDS011;38141;42.666;23.344;2023-09-07T17:14:51;11.00;;;8.30;;
3177;SDS011;38141;42.666;23.344;2023-09-07T17:17:18;11.63;;;7.07;;
3177;SDS011;38141;42.666;23.344;2023-09-07T17:19:45;10.13;;;7.32;;
3177;SDS011;38141;42.666;23.344;2023-09-07T17:22:12;12.90;;;8.00;;
3177;SDS011;38141;42.666;23.344;2023-09-07T17:24:39;15.13;;;8.07;;
3177;SDS011;38141;42.666;23.344;2023-09-07T17:27:07;10.47;;;7.77;;
3177;SDS011;38141;42.666;23.344;2023-09-07T17:29:34;13.97;;;7.87;;
3177;SDS011;38141;42.666;23.344;2023-09-07T17:32:05;14.67;;;7.60;;
3177;SDS011;38141;42.666;23.344;2023-09-07T17:37:05;11.33;;;7.30;;
3177;SDS011;38141;42.666;23.344;2023-09-07T17:39:46;12.33;;;7.67;;
3177;SDS011;38141;42.666;23.344;2023-09-07T17:42:30;10.93;;;7.20;;
3177;SDS011;38141;42.666;23.344;2023-09-07T17:45:11;11.47;;;7.80;;
3177;SDS011;38141;42.666;23.344;2023-09-07T17:47:40;19.63;;;7.87;;
3177;SDS011;38141;42.666;23.344;2023-09-07T17:50:10;10.93;;;7.90;;
3177;SDS011;38141;42.666;23.344;2023-09-07T17:52:39;10.03;;;7.17;;
3177;SDS011;38141;42.666;23.344;2023-09-07T17:55:07;13.40;;;8.47;;
3177;SDS011;38141;42.666;23.344;2023-09-07T17:57:34;9.87;;;7.60;;
3177;SDS011;38141;42.666;23.344;2023-09-07T18:00:02;11.27;;;8.60;;
3177;SDS011;38141;42.666;23.344;2023-09-07T18:02:35;19.93;;;9.30;;
3177;SDS011;38141;42.666;23.344;2023-09-07T18:05:07;12.70;;;8.23;;
3177;SDS011;38141;42.666;23.344;2023-09-07T18:07:35;9.77;;;7.67;;
3177;SDS011;38141;42.666;23.344;2023-09-07T18:10:02;10.00;;;8.27;;
3177;SDS011;38141;42.666;23.344;2023-09-07T18:12:30;11.37;;;7.23;;
3177;SDS011;38141;42.666;23.344;2023-09-07T18:14:57;10.63;;;7.63;;
3177;SDS011;38141;42.666;23.344;2023-09-07T18:17:24;14.37;;;8.80;;
3177;SDS011;38141;42.666;23.344;2023-09-07T18:19:55;10.10;;;7.60;;
3177;SDS011;38141;42.666;23.344;2023-09-07T18:29:00;18.70;;;8.97;;
3177;SDS011;38141;42.666;23.344;2023-09-07T18:31:28;14.40;;;8.07;;
3177;SDS011;38141;42.666;23.344;2023-09-07T18:33:56;13.40;;;8.37;;
3177;SDS011;38141;42.666;23.344;2023-09-07T18:36:23;13.30;;;8.47;;
3177;SDS011;38141;42.666;23.344;2023-09-07T18:38:50;10.03;;;8.07;;
3177;SDS011;38141;42.666;23.344;2023-09-07T18:41:20;11.50;;;7.73;;
3177;SDS011;38141;42.666;23.344;2023-09-07T18:43:48;13.73;;;8.07;;
3177;SDS011;38141;42.666;23.344;2023-09-07T18:46:17;16.37;;;8.40;;
3177;SDS011;38141;42.666;23.344;2023-09-07T18:48:48;14.23;;;9.60;;
3177;SDS011;38141;42.666;23.344;2023-09-07T18:51:15;17.50;;;10.20;;
3177;SDS011;38141;42.666;23.344;2023-09-07T18:53:43;14.67;;;9.40;;
3177;SDS011;38141;42.666;23.344;2023-09-07T18:56:24;13.90;;;9.53;;
3177;SDS011;38141;42.666;23.344;2023-09-07T18:59:06;11.73;;;8.47;;
3177;SDS011;38141;42.666;23.344;2023-09-07T20:02:12;10.43;;;8.60;;
3177;SDS011;38141;42.666;23.344;2023-09-07T20:04:53;44.43;;;32.07;;
3177;SDS011;38141;42.666;23.344;2023-09-07T20:07:34;19.13;;;13.70;;
3177;SDS011;38141;42.666;23.344;2023-09-07T20:10:20;14.13;;;9.60;;
3177;SDS011;38141;42.666;23.344;2023-09-07T20:13:05;16.27;;;10.03;;